Time;durP1;ratioP1;P1;durP2;ratioP2;P2;SDS_P1;SDS_P2;PMS_P1;PMS_P2;Temp;Humidity;BMP_temperature;BMP_pressure;BME280_temperature;BME280_humidity;BME280_pressure;Samples;Min_cycle;Max_cycle;Signal;HPM_P1;HPM_P2
2020/12/23 05:39:11;;;;;;;31.55;17.12;;;;;;;-1.90;76.79;100950.58;1713439;82;21132;-40
2020/12/23 05:41:39;;;;;;;26.62;17.15;;;;;;;-1.89;76.73;100944.66;1714322;82;21152;-36
2020/12/23 11:52:27;;;;;;;22.62;12.20;;;;;;;-0.78;75.22;100739.93;1780905;78;23076;-44
2020/12/23 11:54:57;;;;;;;22.35;13.13;;;;;;;-0.89;75.17;100733.81;1737565;81;21177;-39
2020/12/23 11:57:51;;;;;;;25.45;12.03;;;;;;;-0.92;75.38;100731.51;1703874;81;21151;-44
2020/12/23 12:00:20;;;;;;;19.45;12.05;;;;;;;-0.98;75.29;100735.04;1732677;81;21910;-42
2020/12/23 12:02:51;;;;;;;22.15;13.62;;;;;;;-1.00;75.53;100730.20;1700083;81;21169;-40
2020/12/23 12:08:30;;;;;;;23.32;12.85;;;;;;;-0.98;75.74;100724.36;1731665;81;21476;-38
2020/12/23 12:11:10;;;;;;;20.27;13.18;;;;;;;-0.96;75.94;100727.88;1739251;81;21205;-47
2020/12/23 12:14:19;;;;;;;22.52;11.10;;;;;;;-0.92;75.93;100720.83;1725028;81;21193;-44
2020/12/23 12:16:49;;;;;;;17.92;10.20;;;;;;;-0.92;75.63;100723.39;1708003;80;21151;-38
2020/12/23 12:19:25;;;;;;;19.57;11.40;;;;;;;-0.91;75.46;100735.84;1705158;81;21740;-39
2020/12/23 12:22:38;;;;;;;19.95;11.48;;;;;;;-0.96;75.51;100737.27;1737129;81;21212;-39
2020/12/23 12:25:46;;;;;;;20.08;13.08;;;;;;;-1.03;75.65;100736.07;1729815;81;21634;-41
2020/12/23 12:28:15;;;;;;;24.77;12.78;;;;;;;-1.09;75.69;100726.76;1735324;81;21751;-38
2020/12/23 12:30:48;;;;;;;20.50;11.60;;;;;;;-1.13;76.05;100719.69;1728263;81;21720;-44
2020/12/23 12:33:40;;;;;;;19.37;11.80;;;;;;;-1.07;76.04;100731.56;1800547;78;23018;-42
2020/12/23 12:36:09;;;;;;;21.95;12.47;;;;;;;-1.13;76.17;100729.55;1771896;80;21641;-39
2020/12/23 12:38:52;;;;;;;22.50;11.25;;;;;;;-1.12;76.20;100733.88;1721580;82;21313;-42
2020/12/23 12:41:35;;;;;;;21.50;11.90;;;;;;;-1.11;76.13;100733.07;1708855;83;21655;-39
2020/12/23 12:44:06;;;;;;;20.17;11.70;;;;;;;-1.13;76.18;100726.98;1705136;83;21171;-44
2020/12/23 12:46:35;;;;;;;16.80;10.18;;;;;;;-1.14;76.14;100729.08;1749531;81;21202;-43
2020/12/23 12:49:06;;;;;;;20.62;11.00;;;;;;;-1.18;76.24;100727.13;1712971;83;21591;-38
2020/12/23 12:51:39;;;;;;;18.15;10.13;;;;;;;-1.17;76.38;100725.04;1713080;83;21218;-44
2020/12/23 12:54:07;;;;;;;17.00;9.45;;;;;;;-1.16;76.34;100722.07;1727085;82;21673;-43
2020/12/23 12:56:35;;;;;;;18.23;9.78;;;;;;;-1.20;76.22;100719.76;1715400;83;21648;-43
2020/12/23 12:59:04;;;;;;;23.30;10.23;;;;;;;-1.23;76.35;100714.84;1710934;83;21171;-42
2020/12/23 13:01:39;;;;;;;21.68;10.90;;;;;;;-1.25;76.44;100706.19;1709025;83;21680;-42
2020/12/23 13:04:07;;;;;;;18.12;10.95;;;;;;;-1.26;76.46;100714.30;1712519;83;21195;-38
2020/12/23 13:06:37;;;;;;;18.95;10.85;;;;;;;-1.28;76.58;100705.61;1706388;83;21762;-39
2020/12/23 13:09:05;;;;;;;16.23;10.45;;;;;;;-1.28;76.68;100707.30;1714413;83;21186;-42
2020/12/23 13:11:34;;;;;;;18.90;10.28;;;;;;;-1.28;76.83;100700.47;1706407;83;21230;-38
2020/12/23 13:14:01;;;;;;;18.07;10.98;;;;;;;-1.28;76.79;100703.44;1715806;83;21174;-42
2020/12/23 13:16:31;;;;;;;18.55;10.80;;;;;;;-1.31;76.82;100688.77;1710568;83;21166;-40
2020/12/23 13:18:59;;;;;;;22.22;10.00;;;;;;;-1.31;76.87;100713.56;1706297;83;21185;-41
2020/12/23 13:21:27;;;;;;;21.27;10.20;;;;;;;-1.34;76.82;100715.14;1709261;83;21131;-44
2020/12/23 13:23:55;;;;;;;20.15;10.25;;;;;;;-1.37;76.79;100709.86;1708192;83;21193;-40
2020/12/23 13:26:23;;;;;;;24.23;9.70;;;;;;;-1.40;77.03;100707.11;1712072;83;21163;-39
2020/12/23 13:28:52;;;;;;;19.37;9.68;;;;;;;-1.40;77.06;100707.52;1705896;83;21552;-44
2020/12/23 13:31:25;;;;;;;17.32;10.65;;;;;;;-1.43;77.04;100698.38;1708805;83;21218;-37
2020/12/23 13:33:55;;;;;;;20.95;10.90;;;;;;;-1.47;77.16;100701.17;1689020;83;21191;-37
2020/12/23 13:36:23;;;;;;;18.95;11.40;;;;;;;-1.50;77.23;100710.41;1677271;83;21637;-40
2020/12/23 13:38:53;;;;;;;18.92;11.97;;;;;;;-1.54;77.48;100717.05;1691733;83;21172;-39
2020/12/23 13:41:20;;;;;;;22.13;11.68;;;;;;;-1.56;77.74;100707.11;1678503;83;21148;-40
2020/12/23 13:45:31;;;;;;;17.87;10.30;;;;;;;-1.53;77.87;100712.39;1805888;78;23021;-44
2020/12/23 13:47:59;;;;;;;23.30;13.15;;;;;;;-1.58;77.87;100712.94;1774039;80;21179;-44
2020/12/23 13:50:27;;;;;;;20.95;12.07;;;;;;;-1.58;78.05;100712.94;1756218;81;21165;-39
2020/12/23 13:52:56;;;;;;;22.70;13.25;;;;;;;-1.59;78.11;100714.62;1766197;79;21635;-45
2020/12/23 13:55:24;;;;;;;25.57;14.00;;;;;;;-1.58;78.02;100720.23;1702303;82;21191;-39
2020/12/23 13:57:52;;;;;;;24.02;15.63;;;;;;;-1.56;78.03;100714.80;1718721;82;21224;-40
2020/12/23 14:00:20;;;;;;;23.77;12.85;;;;;;;-1.59;78.22;100709.48;1698411;83;21184;-40
2020/12/23 14:02:48;;;;;;;18.40;11.70;;;;;;;-1.59;78.43;100713.73;1750233;81;21644;-39
2020/12/23 14:05:17;;;;;;;20.88;12.53;;;;;;;-1.59;78.32;100709.89;1709750;82;21167;-44
2020/12/23 14:07:45;;;;;;;19.65;12.93;;;;;;;-1.61;78.39;100717.52;1700978;83;21194;-39
2020/12/23 14:10:13;;;;;;;19.65;12.25;;;;;;;-1.59;78.35;100712.45;1700009;83;21204;-39
2020/12/23 14:12:41;;;;;;;25.05;13.30;;;;;;;-1.59;78.33;100709.89;1698616;83;21241;-40
2020/12/23 14:15:09;;;;;;;22.02;13.62;;;;;;;-1.58;78.38;100712.94;1698538;83;21191;-39
2020/12/23 14:17:37;;;;;;;23.07;13.65;;;;;;;-1.59;78.42;100707.33;1698529;83;21219;-39
2020/12/23 14:20:05;;;;;;;20.68;12.50;;;;;;;-1.59;78.44;100709.89;1719837;82;21562;-40
2020/12/23 14:22:34;;;;;;;23.75;14.60;;;;;;;-1.61;78.49;100708.53;1698651;83;21228;-45
2020/12/23 14:25:01;;;;;;;23.67;12.63;;;;;;;-1.61;78.49;100715.83;1723444;83;21759;-40
2020/12/23 14:27:31;;;;;;;22.70;14.15;;;;;;;-1.58;78.44;100719.35;1723138;83;21212;-44
2020/12/23 14:29:59;;;;;;;21.73;13.10;;;;;;;-1.62;78.49;100717.91;1723382;83;21204;-45
2020/12/23 14:32:27;;;;;;;23.70;13.00;;;;;;;-1.61;78.51;100708.53;1723471;83;21585;-40
2020/12/23 14:34:54;;;;;;;22.58;13.38;;;;;;;-1.64;78.74;100707.06;1723411;83;21641;-44
2020/12/23 14:37:23;;;;;;;27.10;15.20;;;;;;;-1.63;78.88;100702.41;1723305;83;21670;-45
2020/12/23 14:39:51;;;;;;;26.48;14.50;;;;;;;-1.63;78.94;100697.28;1723657;83;21216;-39
2020/12/23 14:42:20;;;;;;;22.52;12.53;;;;;;;-1.64;79.06;100695.11;1722753;83;21169;-45
2020/12/23 14:44:48;;;;;;;25.27;14.15;;;;;;;-1.65;79.10;100688.22;1714892;83;21190;-39
2020/12/23 14:47:16;;;;;;;25.35;14.68;;;;;;;-1.65;79.10;100691.19;1671894;86;21600;-44
2020/12/23 14:49:44;;;;;;;24.15;12.93;;;;;;;-1.67;79.33;100685.98;1736537;81;21568;-40
2020/12/23 14:52:12;;;;;;;21.50;12.20;;;;;;;-1.67;79.37;100678.28;1771860;81;21168;-40
